DKFSF EDLW-EDLW

Flight info

Callsign DKFSF
Flight time 0h 1m
Altitude
Route
Aircraft DISC

Departure

Time 2026-05-07 19:13
Airport Dortmund Airport (EDLW)

Arrival

Time 2026-05-07 19:14
Airport Dortmund Airport (EDLW)
Time Latitude Longitude Altitude Speed Heading
2026-05-07 19:05 51.51169 7.60221 453 ft 23 kts 277°
2026-05-07 19:05 51.51228 7.60244 434 ft 14 kts 51°
2026-05-07 19:05 51.51272 7.60364 441 ft 10 kts 62°
2026-05-07 19:05 51.51311 7.60482 437 ft 16 kts 62°
2026-05-07 19:06 51.51361 7.60622 428 ft 15 kts 62°
2026-05-07 19:06 51.51494 7.60973 427 ft 16 kts 68°
2026-05-07 19:06 51.51570 7.61027 422 ft 14 kts 298°
2026-05-07 19:07 51.51544 7.60797 421 ft 26 kts 254°
2026-05-07 19:07 51.51526 7.60682 409 ft 0 kts 288°
2026-05-07 19:07 51.51527 7.60677 409 ft 5 kts 290°
2026-05-07 19:08 51.51609 7.60617 409 ft 21 kts 38°
2026-05-07 19:08 51.51645 7.60695 416 ft 0 kts 62°
2026-05-07 19:09 51.51654 7.60720 413 ft 11 kts 62°
2026-05-07 19:09 51.51732 7.60942 419 ft 34 kts 62°
2026-05-07 19:10 51.51883 7.61376 415 ft 56 kts 59°
2026-05-07 19:10 51.52090 7.61963 491 ft 59 kts 60°
2026-05-07 19:10 51.52335 7.62435 555 ft 63 kts 356°
2026-05-07 19:10 51.52718 7.62180 705 ft 54 kts 331°
2026-05-07 19:11 51.52774 7.61624 743 ft 58 kts 240°
2026-05-07 19:11 51.52518 7.61137 843 ft 65 kts 227°
2026-05-07 19:11 51.52245 7.60619 943 ft 69 kts 258°
2026-05-07 19:11 51.52092 7.59940 887 ft 54 kts 242°
2026-05-07 19:12 51.52034 7.59863 1076 ft 47 kts 109°
2026-05-07 19:12 51.52000 7.59688 1088 ft 47 kts 79°
2026-05-07 19:12 51.51977 7.59604 929 ft 26 kts 251°
2026-05-07 19:12 51.51904 7.59495 1172 ft 5 kts 93°
2026-05-07 19:13 51.51703 7.59354 803 ft 86 kts 223°
2026-05-07 19:13 51.51374 7.58968 1029 ft 65 kts 156°
2026-05-07 19:13 51.51161 7.59456 593 ft 117 kts 58°
2026-05-07 19:13 51.51461 7.60581 1153 ft 63 kts 161°
2026-05-07 19:14 51.51069 7.60897 1081 ft 77 kts 172°
2026-05-07 19:14 51.50661 7.60451 1422 ft 45 kts 287°
2026-05-07 19:14 51.50643 7.59904 1286 ft 66 kts 218°
2026-05-07 19:14 51.47842 7.57850 1267 ft 68 kts 209°
2026-05-07 19:15 51.47450 7.57613 1163 ft 79 kts 113°
2026-05-07 19:15 51.47837 7.58053 1162 ft 80 kts 324°
2026-05-07 19:15 51.47847 7.57310 1316 ft 75 kts 218°
2026-05-07 19:15 51.47344 7.57583 1463 ft 62 kts 148°
2026-05-07 19:16 51.47627 7.57729 1462 ft 53 kts 315°
2026-05-07 19:16 51.47692 7.57170 1481 ft 67 kts 229°
2026-05-07 19:16 51.47637 7.56537 1549 ft 125 kts 277°
2026-05-07 19:16 51.48057 7.55935 1398 ft 116 kts 19°
2026-05-07 19:17 51.48835 7.55659 1155 ft 118 kts 343°
2026-05-07 19:17 51.49584 7.55522 1188 ft 99 kts
2026-05-07 19:17 51.50129 7.55893 1135 ft 97 kts 50°
2026-05-07 19:17 51.50400 7.56855 1212 ft 73 kts 67°
2026-05-07 19:18 51.50674 7.57758 991 ft 94 kts 62°
2026-05-07 19:18 51.50988 7.58795 658 ft 114 kts 63°
2026-05-07 19:18 51.51386 7.59942 435 ft 114 kts 59°
2026-05-07 19:18 51.51697 7.60824 431 ft 63 kts 60°
2026-05-07 19:19 51.51876 7.61354 416 ft 43 kts 59°
2026-05-07 19:19 51.52019 7.61753 410 ft 42 kts 63°
2026-05-07 19:19 51.52188 7.62262 443 ft 56 kts 60°
2026-05-07 19:19 51.52439 7.62771 499 ft 62 kts 25°
2026-05-07 19:20 51.52826 7.62431 543 ft 49 kts 302°
2026-05-07 19:20 51.52875 7.62182 2221 ft 53 kts 250°
2026-05-07 19:20 51.52656 7.61660 2198 ft 58 kts 234°
2026-05-07 19:20 51.52505 7.61146 2243 ft 51 kts 309°
2026-05-07 19:21 51.52527 7.61338 2234 ft 54 kts 238°
2026-05-07 19:21 51.52582 7.61405 2205 ft 62 kts 188°
2026-05-07 19:21 51.52637 7.61419 2221 ft 59 kts 139°
2026-05-07 19:21 51.52654 7.61254 2258 ft 49 kts 33°
2026-05-07 19:22 51.52562 7.61393 2113 ft 63 kts 311°
2026-05-07 19:22 51.52585 7.61353 2087 ft 67 kts 319°
2026-05-07 19:23 51.52507 7.60787 2078 ft 53 kts 241°
2026-05-07 19:23 51.52331 7.60272 1983 ft 53 kts 240°
2026-05-07 19:23 51.52227 7.59626 1887 ft 61 kts 247°
2026-05-07 19:23 51.52053 7.59080 1901 ft 59 kts 242°
2026-05-07 19:24 51.51845 7.58531 1928 ft 56 kts 235°
2026-05-07 19:24 51.51802 7.58083 1978 ft 51 kts 348°
2026-05-07 19:24 51.51767 7.58342 1963 ft 49 kts 231°
2026-05-07 19:24 51.51469 7.57929 1896 ft 64 kts 220°
2026-05-07 19:25 51.51133 7.57477 1680 ft 86 kts 231°
2026-05-07 19:25 51.50853 7.56954 1986 ft 44 kts 236°
2026-05-07 19:25 51.50572 7.56699 1855 ft 67 kts 166°
2026-05-07 19:25 51.50385 7.57213 1677 ft 67 kts 59°
2026-05-07 19:26 51.50622 7.57838 1500 ft 63 kts 57°
2026-05-07 19:26 51.50844 7.58441 1334 ft 63 kts 58°
2026-05-07 19:26 51.51052 7.59025 1109 ft 57 kts 32°
2026-05-07 19:26 51.51247 7.59572 842 ft 56 kts 32°
2026-05-07 19:27 51.51445 7.60106 569 ft 58 kts 58°
2026-05-07 19:27 51.51642 7.60681 423 ft 56 kts 59°
2026-05-07 19:27 51.51766 7.61032 526 ft 32 kts 38°
2026-05-07 19:27 51.51930 7.61474 421 ft 62 kts 65°
2026-05-07 19:28 51.52101 7.61989 430 ft 51 kts 64°
2026-05-07 19:28 51.52189 7.62286 1356 ft 0 kts 63°
2026-05-07 19:28 51.52153 7.62058 694 ft 124 kts 234°
2026-05-07 19:28 51.51681 7.60817 455 ft 126 kts 243°
2026-05-07 19:29 51.51325 7.59781 779 ft 68 kts 242°
2026-05-07 19:29 51.51143 7.59284 1078 ft 92 kts 244°
2026-05-07 19:29 51.50866 7.58273 997 ft 73 kts 344°
2026-05-07 19:29 51.51168 7.59136 528 ft 115 kts 71°
2026-05-07 19:30 51.51465 7.60124 526 ft 76 kts 57°
2026-05-07 19:30 51.51704 7.60799 513 ft 0 kts 61°
2026-05-07 19:30 51.51893 7.61146 1053 ft 95 kts 38°
2026-05-07 19:30 51.52295 7.61744 1545 ft 0 kts 49°
2026-05-07 19:31 51.52579 7.62041 2803 ft 80 kts 348°
2026-05-07 19:31 51.52740 7.61026 1769 ft 135 kts 277°
2026-05-07 19:31 51.52263 7.59697 938 ft 146 kts 220°
2026-05-07 19:31 51.51899 7.59213 1036 ft 120 kts 223°
2026-05-07 19:32 51.51420 7.58236 988 ft 103 kts 169°
2026-05-07 19:32 51.51150 7.59226 621 ft 115 kts 68°
2026-05-07 19:32 51.51519 7.60299 590 ft 91 kts 34°
2026-05-07 19:32 51.51785 7.61105 437 ft 78 kts 63°
2026-05-07 19:33 51.52045 7.61824 410 ft 71 kts 59°
2026-05-07 19:33 51.52304 7.62390 450 ft 52 kts 11°
2026-05-07 19:33 51.52512 7.62329 1151 ft 60 kts 322°
2026-05-07 19:33 51.52456 7.61791 1774 ft 74 kts 236°
2026-05-07 19:34 51.51853 7.60918 675 ft 153 kts 224°
2026-05-07 19:34 51.51428 7.59833 925 ft 65 kts 314°
2026-05-07 19:34 51.51391 7.59871 551 ft 83 kts 75°
2026-05-07 19:34 51.51617 7.60608 463 ft 62 kts 64°
2026-05-07 19:35 51.51800 7.61218 444 ft 55 kts 101°
2026-05-07 19:35 51.51591 7.61194 477 ft 60 kts 231°
2026-05-07 19:35 51.51348 7.60710 455 ft 51 kts 233°
2026-05-07 19:35 51.51172 7.60298 456 ft 33 kts 180°
2026-05-07 19:36 51.51158 7.60276 458 ft 2 kts 128°